Time;durP1;ratioP1;P1;durP2;ratioP2;P2;SDS_P1;SDS_P2;PMS_P1;PMS_P2;Temp;Humidity;BMP_temperature;BMP_pressure;BME280_temperature;BME280_humidity;BME280_pressure;Samples;Min_cycle;Max_cycle;Signal;HPM_P1;HPM_P2
2022/09/08 00:00:16;;;;;;;1.83;1.05;;;;;;;18.45;88.49;97986.56;4152681;28;20770;-48
2022/09/08 00:02:17;;;;;;;1.02;0.90;;;;;;;18.46;88.49;97974.34;4167428;28;20438;-50
2022/09/08 00:04:19;;;;;;;0.88;0.80;;;;;;;18.68;87.89;97977.09;4151319;28;20240;-47
2022/09/08 00:06:22;;;;;;;1.88;1.00;;;;;;;18.68;88.44;97975.16;4160235;28;20214;-47
2022/09/08 00:08:24;;;;;;;0.95;0.80;;;;;;;18.68;88.61;97966.84;4154501;28;20225;-47
2022/09/08 00:10:26;;;;;;;1.00;1.00;;;;;;;18.70;88.48;97963.75;4167064;28;20848;-48
2022/09/08 00:12:28;;;;;;;1.88;1.10;;;;;;;18.72;88.85;97967.84;4157465;28;20228;-50
2022/09/08 00:14:32;;;;;;;1.70;0.90;;;;;;;18.75;89.54;97967.22;4151809;28;21230;-48
2022/09/08 00:16:34;;;;;;;1.50;1.02;;;;;;;18.77;89.82;97961.38;4153069;28;20734;-48
2022/09/08 00:18:38;;;;;;;2.05;1.20;;;;;;;18.80;90.10;97969.03;4154266;28;20261;-48
2022/09/08 00:20:40;;;;;;;2.55;1.02;;;;;;;18.80;90.55;97969.03;4149231;28;20767;-48
2022/09/08 00:22:42;;;;;;;1.58;0.75;;;;;;;18.91;90.81;97970.44;4168589;28;20213;-48
2022/09/08 00:24:44;;;;;;;1.83;1.23;;;;;;;18.62;92.19;97961.72;4156752;28;20213;-49
2022/09/08 00:26:45;;;;;;;2.13;1.92;;;;;;;18.42;92.73;97960.28;4142450;28;20224;-47
2022/09/08 00:28:48;;;;;;;1.63;1.23;;;;;;;18.46;92.02;97964.06;4167910;28;20307;-49
2022/09/08 00:30:50;;;;;;;2.08;1.20;;;;;;;18.41;92.53;97953.13;4149154;28;20220;-47
2022/09/08 00:32:52;;;;;;;1.23;0.70;;;;;;;18.29;92.49;97954.75;4149928;28;20956;-49
2022/09/08 00:34:53;;;;;;;0.90;0.90;;;;;;;18.27;93.11;97955.09;4150872;28;20196;-48
2022/09/08 00:36:58;;;;;;;3.00;1.20;;;;;;;18.27;93.36;97951.50;4151566;28;20197;-47
2022/09/08 00:39:00;;;;;;;2.78;1.08;;;;;;;18.29;93.49;97951.97;4166830;28;20314;-47
2022/09/08 00:41:05;;;;;;;4.15;1.20;;;;;;;18.37;93.13;97954.03;4151204;28;20251;-48
2022/09/08 00:43:07;;;;;;;2.58;1.10;;;;;;;18.41;93.06;97955.06;4153342;28;20327;-49
2022/09/08 00:45:17;;;;;;;3.40;1.02;;;;;;;18.07;94.87;97954.72;4146384;28;20296;-50
2022/09/08 00:47:28;;;;;;;1.42;0.90;;;;;;;17.93;96.66;97953.94;4154273;28;20244;-49
2022/09/08 00:49:30;;;;;;;2.67;1.20;;;;;;;18.16;95.18;97958.38;4170077;28;20634;-50
2022/09/08 00:51:32;;;;;;;1.75;1.23;;;;;;;18.12;95.31;97949.09;4174495;28;20295;-48
2022/09/08 00:53:37;;;;;;;2.40;1.10;;;;;;;18.10;95.16;97941.06;4168456;28;20216;-49
2022/09/08 00:55:39;;;;;;;1.10;0.85;;;;;;;18.18;94.87;97928.44;4187109;28;20236;-49
2022/09/08 00:57:41;;;;;;;2.47;1.10;;;;;;;18.17;94.52;97933.16;4172363;28;20240;-49
2022/09/08 00:59:45;;;;;;;4.57;1.05;;;;;;;18.27;94.11;97921.00;4158433;28;20315;-48
2022/09/08 01:01:47;;;;;;;2.22;1.00;;;;;;;18.04;94.63;97927.69;4156800;28;20225;-48
2022/09/08 01:03:49;;;;;;;1.15;0.80;;;;;;;18.06;94.77;97919.88;4155492;28;20307;-48
2022/09/08 01:06:12;;;;;;;1.02;0.90;;;;;;;18.01;95.12;97920.81;4157038;28;20287;-47
2022/09/08 01:13:26;;;;;;;3.22;1.17;;;;;;;17.65;97.18;97919.16;4169702;28;20634;-48
2022/09/08 01:15:28;;;;;;;0.98;0.88;;;;;;;17.90;96.11;97922.16;4158818;28;20252;-48
2022/09/08 01:17:31;;;;;;;1.40;1.10;;;;;;;17.97;96.02;97907.88;4157156;28;20220;-48
2022/09/08 01:19:32;;;;;;;1.90;1.20;;;;;;;17.90;96.11;97921.31;4172448;28;20204;-48
2022/09/08 01:22:11;;;;;;;1.20;1.10;;;;;;;17.63;98.14;97904.78;4171977;28;20220;-46
2022/09/08 01:24:37;;;;;;;0.90;0.90;;;;;;;17.43;99.38;97916.28;4169433;28;20219;-47
2022/09/08 01:26:49;;;;;;;1.05;0.98;;;;;;;17.56;98.75;97921.81;4172541;28;20219;-48
2022/09/08 01:28:56;;;;;;;10.15;1.20;;;;;;;17.69;98.25;97914.63;4169438;28;23904;-47
2022/09/08 01:30:59;;;;;;;2.63;1.23;;;;;;;17.86;97.63;97909.25;4168308;28;20208;-47
2022/09/08 01:33:03;;;;;;;4.13;1.45;;;;;;;17.60;98.94;97911.75;4158104;28;20312;-47
2022/09/08 01:35:06;;;;;;;1.45;1.00;;;;;;;17.72;98.02;97925.06;4161486;28;20574;-48
2022/09/08 01:37:08;;;;;;;1.58;1.48;;;;;;;17.84;97.35;97923.41;4161047;28;20986;-49
2022/09/08 01:39:09;;;;;;;2.40;1.00;;;;;;;17.96;97.24;97920.91;4156892;28;20240;-48
2022/09/08 01:41:13;;;;;;;1.27;1.17;;;;;;;18.01;96.85;97917.22;4170999;28;20204;-47
2022/09/08 01:43:15;;;;;;;2.33;0.88;;;;;;;18.09;96.76;97908.97;4159096;28;20213;-47
2022/09/08 01:45:17;;;;;;;1.10;1.00;;;;;;;18.08;96.99;97898.22;4159406;28;20205;-48
2022/09/08 01:47:18;;;;;;;1.40;1.13;;;;;;;18.22;96.76;97904.50;4159291;28;20213;-48
2022/09/08 01:49:20;;;;;;;6.32;1.20;;;;;;;18.21;96.82;97900.09;4157363;28;20237;-49
2022/09/08 01:51:22;;;;;;;1.67;1.13;;;;;;;18.22;96.80;97901.75;4156544;28;20293;-48
2022/09/08 01:53:23;;;;;;;2.97;1.77;;;;;;;18.31;96.53;97905.44;4187818;28;20212;-48
2022/09/08 01:55:25;;;;;;;1.52;1.10;;;;;;;18.37;96.26;97904.16;4186221;28;20266;-48
2022/09/08 01:57:26;;;;;;;1.75;1.17;;;;;;;18.25;96.68;97907.47;4169920;28;20209;-48
2022/09/08 01:59:28;;;;;;;1.98;1.10;;;;;;;18.22;96.63;97901.75;4157846;28;20209;-48
2022/09/08 02:01:30;;;;;;;1.13;1.05;;;;;;;18.28;96.49;97915.16;4155595;28;20243;-47
2022/09/08 02:03:32;;;;;;;2.05;1.30;;;;;;;18.22;96.38;97932.22;4159799;28;20688;-48
2022/09/08 02:05:41;;;;;;;2.67;1.20;;;;;;;18.22;96.32;97940.53;4161053;28;20578;-48
2022/09/08 02:07:43;;;;;;;0.90;0.90;;;;;;;18.22;96.83;97965.44;4169292;28;20305;-49
2022/09/08 02:09:45;;;;;;;2.45;1.20;;;;;;;18.14;97.56;97961.50;4155066;28;20205;-48
2022/09/08 02:11:48;;;;;;;2.35;1.40;;;;;;;18.22;97.48;97959.91;4154878;28;20287;-48
2022/09/08 02:13:50;;;;;;;3.38;1.00;;;;;;;18.19;97.23;97971.63;4169354;28;20239;-48
2022/09/08 02:15:58;;;;;;;1.55;1.30;;;;;;;18.24;96.96;97968.75;4171065;28;20243;-47
2022/09/08 02:18:00;;;;;;;2.75;1.40;;;;;;;18.14;97.56;97971.72;4161110;28;20219;-48
2022/09/08 02:20:02;;;;;;;3.00;1.30;;;;;;;18.14;97.44;97964.25;4167668;28;20196;-48
2022/09/08 02:22:04;;;;;;;1.35;1.20;;;;;;;17.91;98.17;97956.22;4152542;28;20212;-50
2022/09/08 02:24:06;;;;;;;1.25;1.15;;;;;;;18.10;97.52;97943.00;4161304;28;20211;-48
2022/09/08 02:26:14;;;;;;;3.50;1.30;;;;;;;18.16;97.30;97933.47;4160997;28;20201;-48
2022/09/08 02:28:15;;;;;;;1.27;1.17;;;;;;;18.31;96.14;97945.03;4168214;28;20216;-49
2022/09/08 02:30:17;;;;;;;1.67;1.20;;;;;;;18.23;96.46;97956.84;4159478;28;20204;-48
2022/09/08 02:32:19;;;;;;;1.48;1.00;;;;;;;18.22;96.59;97962.69;4161464;28;20295;-48
2022/09/08 02:34:21;;;;;;;2.67;1.10;;;;;;;18.18;96.50;97967.22;4161910;28;20217;-49
2022/09/08 02:36:22;;;;;;;4.68;1.60;;;;;;;18.28;95.94;97956.72;4155521;28;20288;-48
2022/09/08 02:38:25;;;;;;;2.40;1.05;;;;;;;18.03;97.33;97948.16;4185559;28;20594;-48
2022/09/08 02:40:26;;;;;;;1.90;1.13;;;;;;;18.02;97.75;97958.44;4162950;28;20205;-48
2022/09/08 02:42:28;;;;;;;1.35;1.25;;;;;;;17.92;98.35;97953.13;4155007;28;20253;-48
2022/09/08 02:44:30;;;;;;;2.80;1.20;;;;;;;18.01;98.18;97950.44;4154638;28;20301;-48
2022/09/08 02:46:31;;;;;;;5.75;1.10;;;;;;;18.04;97.95;97950.63;4168625;28;20206;-48
2022/09/08 02:48:34;;;;;;;2.78;1.25;;;;;;;18.13;97.37;97945.19;4153617;28;20232;-48
2022/09/08 02:50:35;;;;;;;0.98;0.77;;;;;;;18.19;97.06;97943.94;4159676;28;20196;-48
2022/09/08 02:52:37;;;;;;;5.53;0.98;;;;;;;17.95;98.06;97941.44;4155217;28;20217;-47
2022/09/08 02:54:39;;;;;;;7.32;1.60;;;;;;;17.83;98.72;97937.53;4156072;28;20209;-48
2022/09/08 02:56:40;;;;;;;1.25;1.15;;;;;;;17.59;100.00;97946.09;4160007;28;20219;-46
2022/09/08 02:58:42;;;;;;;5.03;1.38;;;;;;;17.27;100.00;97939.81;4156967;28;20328;-47
2022/09/08 03:00:44;;;;;;;3.17;1.48;;;;;;;16.98;100.00;97942.88;4186213;28;20283;-47
2022/09/08 03:02:46;;;;;;;1.85;1.70;;;;;;;16.83;100.00;97939.56;4154958;28;20266;-46
2022/09/08 03:04:49;;;;;;;1.63;1.35;;;;;;;16.68;100.00;97931.56;4159771;28;20267;-47
2022/09/08 03:06:51;;;;;;;3.38;1.80;;;;;;;16.87;100.00;97918.50;4160984;28;20241;-46
2022/09/08 03:08:53;;;;;;;2.42;1.67;;;;;;;17.01;100.00;97919.31;4160802;28;20235;-46
2022/09/08 03:10:55;;;;;;;27.33;2.30;;;;;;;16.93;100.00;97922.81;4150715;28;20205;-47
2022/09/08 03:12:56;;;;;;;2.78;2.08;;;;;;;16.99;100.00;97921.59;4153952;28;20207;-46
2022/09/08 03:14:58;;;;;;;4.03;1.67;;;;;;;16.88;100.00;97920.13;4159861;28;20209;-45
2022/09/08 03:17:00;;;;;;;2.47;2.08;;;;;;;16.79;100.00;97915.59;4151584;28;20759;-45
2022/09/08 03:19:02;;;;;;;2.58;1.88;;;;;;;16.76;100.00;97913.47;4157582;28;20227;-46
2022/09/08 03:21:09;;;;;;;3.03;1.92;;;;;;;16.91;100.00;97914.00;4160452;28;20295;-46
2022/09/08 03:23:19;;;;;;;1.98;1.77;;;;;;;16.89;100.00;97912.66;4185493;28;20253;-46
2022/09/08 03:25:20;;;;;;;2.85;1.85;;;;;;;17.07;100.00;97923.63;4159882;28;20255;-47
2022/09/08 03:27:22;;;;;;;3.30;2.08;;;;;;;17.01;100.00;97930.38;4159907;28;20694;-47
2022/09/08 03:29:24;;;;;;;3.60;2.22;;;;;;;16.85;100.00;97931.81;4156111;28;20758;-45
2022/09/08 03:31:25;;;;;;;2.97;2.78;;;;;;;16.86;100.00;97930.69;4161297;28;20686;-46
2022/09/08 03:33:28;;;;;;;5.10;2.20;;;;;;;16.88;100.00;97919.31;4165832;28;20563;-48
2022/09/08 03:35:30;;;;;;;3.28;2.03;;;;;;;17.14;100.00;97930.41;4152932;28;20649;-46
2022/09/08 03:37:32;;;;;;;3.45;2.03;;;;;;;17.16;100.00;97932.84;4169522;28;20204;-48
2022/09/08 03:39:34;;;;;;;1.75;1.65;;;;;;;17.18;100.00;97936.94;4154330;28;20296;-46
2022/09/08 03:41:35;;;;;;;2.40;2.10;;;;;;;16.81;100.00;97925.25;4160153;28;20208;-46
2022/09/08 03:43:37;;;;;;;3.80;2.03;;;;;;;16.89;100.00;97938.34;4165781;28;20236;-46
2022/09/08 03:45:43;;;;;;;1.60;1.50;;;;;;;16.91;100.00;97947.19;4158487;28;20698;-47
2022/09/08 03:47:45;;;;;;;1.45;1.35;;;;;;;17.05;100.00;97942.47;4160626;28;20307;-47
2022/09/08 03:49:47;;;;;;;2.28;1.42;;;;;;;17.10;100.00;97947.88;4155063;28;20672;-46
2022/09/08 03:51:49;;;;;;;2.25;1.48;;;;;;;17.02;100.00;97948.59;4168414;28;20210;-47
2022/09/08 03:53:51;;;;;;;2.30;1.50;;;;;;;17.07;100.00;97945.75;4183558;28;20204;-46
2022/09/08 03:55:53;;;;;;;1.88;1.30;;;;;;;17.16;100.00;97932.84;4183598;28;20205;-46
2022/09/08 03:57:55;;;;;;;1.83;1.23;;;;;;;16.93;100.00;97933.88;4181675;28;20242;-47
2022/09/08 03:59:58;;;;;;;5.25;1.10;;;;;;;17.00;100.00;97923.22;4159626;28;20572;-46
2022/09/08 04:01:59;;;;;;;0.90;0.90;;;;;;;17.03;100.00;97914.31;4167565;28;20212;-45
2022/09/08 04:04:02;;;;;;;3.75;1.50;;;;;;;17.08;100.00;97914.22;4155069;28;20699;-46
2022/09/08 04:06:03;;;;;;;1.38;1.10;;;;;;;17.20;100.00;97917.28;4154512;28;20758;-45
2022/09/08 04:08:05;;;;;;;2.22;1.10;;;;;;;17.07;100.00;97912.56;4151702;28;20225;-45
2022/09/08 04:10:11;;;;;;;1.88;1.00;;;;;;;16.92;100.00;97915.66;4153767;28;20192;-47
2022/09/08 04:12:19;;;;;;;2.85;1.50;;;;;;;16.92;100.00;97910.13;4168198;28;20604;-45
2022/09/08 04:14:21;;;;;;;0.93;0.80;;;;;;;17.12;100.00;97898.66;4153937;28;20219;-47
2022/09/08 04:16:23;;;;;;;1.35;1.17;;;;;;;17.11;100.00;97902.56;4172188;28;20291;-45
2022/09/08 04:18:24;;;;;;;2.25;0.90;;;;;;;17.22;100.00;97903.97;4155017;28;20245;-46
2022/09/08 04:20:26;;;;;;;1.63;0.80;;;;;;;17.27;100.00;97901.09;4159879;28;20240;-47
2022/09/08 04:22:28;;;;;;;1.25;0.90;;;;;;;17.32;100.00;97910.13;4187133;28;20223;-46
2022/09/08 04:24:29;;;;;;;2.08;0.80;;;;;;;17.29;100.00;97901.59;4174128;28;20212;-46
2022/09/08 04:26:31;;;;;;;1.10;1.00;;;;;;;17.28;100.00;97903.56;4174015;28;21190;-46
2022/09/08 04:28:33;;;;;;;2.55;0.80;;;;;;;17.12;100.00;97898.66;4156018;28;20385;-46
2022/09/08 04:30:38;;;;;;;1.15;0.82;;;;;;;17.13;100.00;97889.22;4162668;28;20205;-46
2022/09/08 04:32:40;;;;;;;2.03;0.85;;;;;;;17.11;100.00;97894.25;4154344;28;20247;-46
2022/09/08 04:34:42;;;;;;;1.70;0.80;;;;;;;17.06;100.00;97899.88;4168579;28;20204;-46
2022/09/08 04:36:44;;;;;;;1.55;1.10;;;;;;;16.87;100.00;97901.91;4159821;28;20289;-45
2022/09/08 04:38:46;;;;;;;1.13;0.90;;;;;;;16.91;100.00;97902.94;4172138;28;20249;-46
2022/09/08 04:40:48;;;;;;;0.80;0.80;;;;;;;16.84;100.00;97905.25;4172619;28;21057;-46
2022/09/08 04:42:49;;;;;;;0.75;0.75;;;;;;;16.95;100.00;97919.75;4184627;28;20314;-47
2022/09/08 04:44:51;;;;;;;2.35;0.93;;;;;;;16.73;100.00;97903.84;4145232;28;20292;-46
2022/09/08 04:46:53;;;;;;;0.60;0.60;;;;;;;16.67;100.00;97907.81;4156240;28;20332;-46
2022/09/08 04:48:54;;;;;;;1.98;1.02;;;;;;;16.84;100.00;97927.38;4157410;28;20229;-46
2022/09/08 04:50:57;;;;;;;0.93;0.93;;;;;;;16.79;100.00;97921.13;4155105;28;20698;-48
2022/09/08 04:52:59;;;;;;;1.23;1.10;;;;;;;16.67;100.00;97923.56;4172238;28;20255;-47
2022/09/08 04:55:02;;;;;;;2.85;0.90;;;;;;;16.76;100.00;97922.56;4157680;28;20203;-47
2022/09/08 04:57:04;;;;;;;0.75;0.60;;;;;;;16.74;100.00;97929.50;4159089;28;20211;-46
2022/09/08 04:59:05;;;;;;;1.25;0.95;;;;;;;16.44;100.00;97928.09;4152667;28;20221;-47
2022/09/08 05:01:12;;;;;;;0.88;0.88;;;;;;;16.57;100.00;97930.09;4153842;28;20211;-46
2022/09/08 05:03:14;;;;;;;1.45;0.70;;;;;;;16.52;100.00;97932.94;4153255;28;20221;-46
2022/09/08 05:05:15;;;;;;;1.40;1.00;;;;;;;16.49;100.00;97930.78;4152671;28;20401;-46
2022/09/08 05:07:17;;;;;;;1.10;0.80;;;;;;;16.49;100.00;97947.34;4154608;28;20237;-45
2022/09/08 05:09:19;;;;;;;1.25;1.15;;;;;;;16.51;100.00;97953.41;4154172;28;20228;-46
2022/09/08 05:11:21;;;;;;;1.27;1.17;;;;;;;16.65;100.00;97959.81;4186524;28;20207;-47
2022/09/08 05:13:23;;;;;;;1.00;1.00;;;;;;;16.69;100.00;97963.59;4162271;28;20216;-46
2022/09/08 05:15:25;;;;;;;0.70;0.70;;;;;;;16.84;100.00;97952.25;4160835;28;20212;-47
2022/09/08 05:17:29;;;;;;;1.50;0.90;;;;;;;16.73;100.00;97950.81;4159970;28;20291;-48
2022/09/08 05:19:31;;;;;;;2.20;0.93;;;;;;;16.66;100.00;97955.91;4163469;28;20244;-46
2022/09/08 05:21:35;;;;;;;1.35;1.15;;;;;;;16.78;100.00;97977.53;4160391;28;20308;-47
2022/09/08 05:23:36;;;;;;;1.30;0.88;;;;;;;16.80;100.00;97973.34;4187585;28;20223;-47
2022/09/08 05:25:38;;;;;;;1.02;1.00;;;;;;;16.72;100.00;97982.34;4161891;28;20208;-46
2022/09/08 05:27:40;;;;;;;2.35;0.90;;;;;;;16.34;100.00;97986.25;4148501;28;20600;-45
2022/09/08 05:29:41;;;;;;;1.58;0.73;;;;;;;16.20;100.00;97990.03;4154939;28;20204;-46
2022/09/08 05:31:43;;;;;;;1.17;1.08;;;;;;;16.35;100.00;97985.13;4154073;28;20278;-48
2022/09/08 05:33:45;;;;;;;1.05;0.88;;;;;;;16.42;100.00;97988.34;4152398;28;20190;-46
2022/09/08 05:35:47;;;;;;;2.08;1.20;;;;;;;16.30;100.00;97990.72;4186708;28;20235;-46
2022/09/08 05:37:49;;;;;;;1.50;1.00;;;;;;;16.19;100.00;97993.94;4172197;28;20263;-46
2022/09/08 05:39:51;;;;;;;1.08;1.00;;;;;;;16.23;100.00;98001.31;4162521;28;20208;-46
2022/09/08 05:41:52;;;;;;;1.98;1.13;;;;;;;16.20;100.00;97999.16;4157104;28;20255;-46
2022/09/08 05:43:55;;;;;;;2.05;1.52;;;;;;;16.17;100.00;98002.50;4172449;28;20224;-46
2022/09/08 05:45:56;;;;;;;1.98;0.90;;;;;;;16.13;100.00;98008.91;4163046;28;20604;-45
2022/09/08 05:47:58;;;;;;;2.47;1.20;;;;;;;15.96;100.00;98003.09;4159249;28;20252;-48
2022/09/08 05:50:00;;;;;;;2.03;1.10;;;;;;;16.04;100.00;97997.72;4151906;28;20227;-47
2022/09/08 05:52:02;;;;;;;0.90;0.85;;;;;;;16.10;100.00;98007.56;4162245;28;20204;-47
2022/09/08 05:54:04;;;;;;;1.60;0.98;;;;;;;16.14;100.00;97994.81;4158317;28;20197;-46
2022/09/08 05:56:07;;;;;;;1.05;0.80;;;;;;;16.20;100.00;98001.91;4160805;28;20200;-46
2022/09/08 05:58:12;;;;;;;4.20;0.77;;;;;;;16.08;100.00;97993.25;4157044;28;20315;-48
2022/09/08 06:00:23;;;;;;;0.80;0.80;;;;;;;16.14;100.00;97994.81;4185376;28;20574;-46
2022/09/08 06:02:25;;;;;;;1.35;0.80;;;;;;;16.16;100.00;97994.53;4141693;28;20237;-46
2022/09/08 06:04:27;;;;;;;0.80;0.80;;;;;;;16.28;100.00;98006.75;4155439;28;20215;-47
2022/09/08 06:06:34;;;;;;;0.98;0.80;;;;;;;16.40;100.00;98004.41;4155302;28;20308;-47
2022/09/08 06:08:37;;;;;;;1.45;1.05;;;;;;;16.45;100.00;98009.84;4185293;28;20223;-47
2022/09/08 06:10:39;;;;;;;1.98;0.70;;;;;;;16.38;100.00;98014.94;4139414;28;20765;-48
2022/09/08 06:12:44;;;;;;;0.70;0.70;;;;;;;16.35;100.00;98021.00;4170494;28;20208;-48
2022/09/08 06:14:45;;;;;;;1.40;1.05;;;;;;;16.32;100.00;98016.09;4155840;28;20671;-47
2022/09/08 06:16:47;;;;;;;1.35;0.93;;;;;;;16.32;100.00;98032.66;4154100;28;20728;-48
2022/09/08 06:18:50;;;;;;;2.10;0.82;;;;;;;16.32;100.00;98023.56;4185084;28;20234;-47
2022/09/08 06:20:52;;;;;;;1.05;0.90;;;;;;;16.47;100.00;98026.94;4155218;28;20204;-47
2022/09/08 06:22:53;;;;;;;1.58;0.93;;;;;;;16.59;100.00;98027.31;4169841;28;20227;-49
2022/09/08 06:24:55;;;;;;;0.70;0.70;;;;;;;16.37;100.00;98024.28;4152013;28;21098;-47
2022/09/08 06:27:42;;;;;;;1.33;0.93;;;;;;;16.35;100.00;98026.53;4167673;28;20208;-48
2022/09/08 06:29:59;;;;;;;0.95;0.90;;;;;;;16.48;100.00;98024.97;4111161;28;20606;-48
2022/09/08 06:32:02;;;;;;;1.05;1.05;;;;;;;16.35;100.00;98022.97;4145264;28;20258;-47
2022/09/08 06:34:12;;;;;;;1.38;1.27;;;;;;;16.35;100.00;98037.59;4161135;28;20292;-47
2022/09/08 06:36:17;;;;;;;1.10;1.00;;;;;;;16.23;100.00;98036.41;4153070;28;20227;-47
2022/09/08 06:38:26;;;;;;;1.10;1.00;;;;;;;16.22;100.00;98040.28;4160112;28;20227;-48
2022/09/08 06:40:34;;;;;;;1.17;1.13;;;;;;;16.17;100.00;98041.16;4163346;28;20212;-47
2022/09/08 06:42:55;;;;;;;1.38;1.10;;;;;;;16.24;100.00;98049.06;4152797;28;20209;-47
2022/09/08 06:44:59;;;;;;;1.00;0.98;;;;;;;16.34;100.00;98047.00;4151079;28;20205;-47
2022/09/08 06:47:01;;;;;;;2.03;1.45;;;;;;;16.47;100.00;98043.50;4161897;28;20226;-48
2022/09/08 06:49:03;;;;;;;0.80;0.80;;;;;;;16.48;100.00;98042.38;4149997;28;20728;-48
2022/09/08 06:51:20;;;;;;;1.10;1.00;;;;;;;16.45;100.00;98048.53;4169702;28;20196;-47
2022/09/08 06:53:25;;;;;;;1.48;1.05;;;;;;;16.51;100.00;98047.34;4168844;28;20786;-47
2022/09/08 06:55:26;;;;;;;0.77;0.77;;;;;;;16.39;100.00;98043.38;4172338;28;20618;-49
2022/09/08 06:57:34;;;;;;;0.75;0.75;;;;;;;16.44;100.00;98040.53;4185068;28;20748;-48
2022/09/08 07:00:10;;;;;;;1.73;1.30;;;;;;;16.44;100.00;98041.34;4183915;28;20214;-47
2022/09/08 07:02:50;;;;;;;1.13;0.73;;;;;;;16.58;100.00;98045.00;4163275;28;20303;-47
2022/09/08 07:05:13;;;;;;;1.33;0.85;;;;;;;16.81;100.00;98041.31;4152863;28;20303;-47
2022/09/08 07:07:26;;;;;;;2.13;1.00;;;;;;;16.94;100.00;98043.31;4171231;28;20232;-46
2022/09/08 07:09:41;;;;;;;1.48;1.00;;;;;;;16.99;100.00;98046.00;4167076;28;20208;-47
2022/09/08 07:11:54;;;;;;;8.88;2.72;;;;;;;17.04;100.00;98037.59;4170376;28;20211;-48
2022/09/08 07:13:56;;;;;;;1.55;0.80;;;;;;;17.16;100.00;98044.28;4166835;28;20207;-48
2022/09/08 07:16:07;;;;;;;0.65;0.65;;;;;;;17.33;99.49;98040.94;4170450;28;20270;-47
2022/09/08 07:18:17;;;;;;;0.88;0.70;;;;;;;17.18;99.44;98041.22;4186949;28;20635;-48
2022/09/08 07:20:20;;;;;;;1.00;0.80;;;;;;;17.08;99.97;98051.66;4160191;28;20196;-47
2022/09/08 07:22:31;;;;;;;1.25;0.68;;;;;;;17.14;100.00;98051.25;4151916;28;20211;-47
2022/09/08 07:24:36;;;;;;;1.23;0.80;;;;;;;17.26;100.00;98054.34;4171350;28;20278;-47
2022/09/08 07:26:45;;;;;;;6.38;1.27;;;;;;;17.04;100.00;98054.16;4158888;28;20211;-49
2022/09/08 07:28:50;;;;;;;1.27;0.70;;;;;;;17.12;99.56;98050.75;4156033;28;20772;-48
2022/09/08 07:31:03;;;;;;;0.65;0.65;;;;;;;17.13;99.29;98057.91;4169462;28;20211;-47
2022/09/08 07:33:15;;;;;;;5.25;1.02;;;;;;;17.08;99.85;98066.28;4168298;28;20215;-49
2022/09/08 07:35:55;;;;;;;1.13;0.98;;;;;;;17.03;99.91;98058.06;4168338;28;20208;-48
2022/09/08 07:38:01;;;;;;;1.02;0.75;;;;;;;17.05;99.35;98056.63;4155425;28;20223;-48
2022/09/08 07:40:15;;;;;;;0.70;0.70;;;;;;;17.01;99.45;98068.63;4136774;28;20722;-48
2022/09/08 07:42:17;;;;;;;2.17;1.13;;;;;;;17.14;99.70;98070.59;4153883;28;20296;-47
2022/09/08 07:44:21;;;;;;;1.20;0.80;;;;;;;17.12;99.04;98075.63;4153641;28;20691;-47
2022/09/08 07:46:56;;;;;;;0.98;0.75;;;;;;;17.04;97.97;98073.53;4151115;28;20845;-47
2022/09/08 07:49:22;;;;;;;3.35;0.90;;;;;;;16.89;96.65;98076.53;4183155;28;20229;-47
2022/09/08 07:51:27;;;;;;;0.60;0.60;;;;;;;16.92;96.78;98081.50;4170952;28;20726;-47
2022/09/08 07:53:47;;;;;;;1.17;0.77;;;;;;;17.25;95.01;98085.91;4158175;28;20296;-49
2022/09/08 07:55:49;;;;;;;2.05;0.70;;;;;;;17.23;94.62;98088.97;4193380;28;20290;-47
2022/09/08 07:58:00;;;;;;;1.30;1.02;;;;;;;17.17;94.53;98089.34;4174263;28;20314;-47
2022/09/08 08:00:09;;;;;;;1.00;0.75;;;;;;;17.19;94.41;98081.59;4169351;28;20245;-47
2022/09/08 08:02:42;;;;;;;0.80;0.77;;;;;;;17.51;93.66;98084.34;4163758;28;20196;-48
2022/09/08 08:04:53;;;;;;;0.82;0.80;;;;;;;17.67;92.92;98085.69;4173021;28;20731;-49
2022/09/08 08:06:57;;;;;;;0.47;0.47;;;;;;;17.44;91.53;98078.41;4162896;28;20205;-47
2022/09/08 08:09:22;;;;;;;1.10;1.00;;;;;;;17.57;92.19;98083.09;4154836;28;20224;-47
2022/09/08 08:11:46;;;;;;;1.00;0.73;;;;;;;17.84;92.00;98099.78;4169091;28;20642;-48
2022/09/08 08:13:54;;;;;;;0.82;0.75;;;;;;;17.62;90.84;98102.38;4167370;28;20888;-47
2022/09/08 08:16:04;;;;;;;2.22;0.70;;;;;;;17.49;90.64;98103.19;4172340;28;20243;-47
2022/09/08 08:18:32;;;;;;;0.60;0.60;;;;;;;17.23;90.68;98099.19;4185024;28;20285;-47
2022/09/08 08:20:55;;;;;;;2.22;0.90;;;;;;;17.34;91.88;98106.19;4138748;28;20681;-47
2022/09/08 08:23:12;;;;;;;1.55;0.82;;;;;;;17.20;91.07;98102.56;4162420;28;20235;-47
2022/09/08 08:25:24;;;;;;;0.90;0.88;;;;;;;17.25;90.72;98108.03;4155260;28;20698;-47
2022/09/08 08:27:28;;;;;;;0.90;0.70;;;;;;;17.47;91.52;98116.50;4144944;28;20215;-49
2022/09/08 08:29:54;;;;;;;1.42;0.60;;;;;;;17.33;90.67;98118.41;4187839;28;20720;-48
2022/09/08 08:32:05;;;;;;;1.10;0.63;;;;;;;17.23;91.83;98122.16;4154148;28;20300;-47
2022/09/08 08:34:30;;;;;;;5.05;0.70;;;;;;;17.22;91.24;98122.44;4145918;28;20201;-47
2022/09/08 08:36:35;;;;;;;0.70;0.60;;;;;;;17.11;91.82;98123.75;4173632;28;20300;-47
2022/09/08 08:38:41;;;;;;;0.98;0.70;;;;;;;17.26;91.87;98113.22;4154906;28;20248;-47
2022/09/08 08:40:49;;;;;;;2.88;0.57;;;;;;;17.46;90.89;98125.94;4155099;28;20244;-48
2022/09/08 08:43:07;;;;;;;1.35;0.70;;;;;;;17.27;91.18;98127.91;4187961;28;20761;-47
2022/09/08 08:45:20;;;;;;;2.55;0.63;;;;;;;17.33;90.41;98126.69;4161584;28;20225;-47
2022/09/08 08:47:43;;;;;;;1.48;0.75;;;;;;;17.53;91.20;98123.59;4185933;28;20208;-48
2022/09/08 08:50:03;;;;;;;0.50;0.47;;;;;;;17.42;91.10;98119.34;4163154;28;20710;-47
2022/09/08 08:52:43;;;;;;;0.88;0.63;;;;;;;17.37;91.66;98120.28;4172373;28;20561;-47
2022/09/08 08:55:28;;;;;;;0.55;0.47;;;;;;;17.44;90.92;98128.19;4147061;28;20215;-47
2022/09/08 08:57:39;;;;;;;1.17;0.63;;;;;;;17.57;91.28;98127.38;4108508;28;20926;-48
2022/09/08 08:59:52;;;;;;;0.63;0.60;;;;;;;17.50;90.87;98127.78;4141169;28;20222;-48
2022/09/08 09:02:05;;;;;;;1.45;0.63;;;;;;;17.64;90.83;98125.88;4153939;28;20211;-47
2022/09/08 09:04:28;;;;;;;1.55;0.75;;;;;;;17.74;90.27;98133.16;4170606;28;20310;-48
2022/09/08 09:06:52;;;;;;;1.90;0.60;;;;;;;17.62;91.37;98130.06;4160845;28;20284;-48
2022/09/08 09:09:31;;;;;;;2.13;0.60;;;;;;;17.71;91.35;98140.13;4169809;28;20571;-47
2022/09/08 09:11:55;;;;;;;2.63;0.55;;;;;;;17.80;90.86;98135.53;4171462;28;20212;-49
2022/09/08 09:14:00;;;;;;;0.90;0.50;;;;;;;17.62;90.69;98138.38;4160846;28;20295;-48
2022/09/08 09:16:29;;;;;;;1.42;0.40;;;;;;;17.51;89.54;98136.94;4172592;28;20231;-48
2022/09/08 09:19:01;;;;;;;1.00;0.60;;;;;;;17.46;90.48;98143.34;4168475;28;20571;-48
2022/09/08 09:21:04;;;;;;;1.85;0.70;;;;;;;17.49;91.64;98141.91;4153269;28;20196;-47
2022/09/08 09:23:37;;;;;;;1.95;0.80;;;;;;;17.58;90.44;98129.06;4154988;28;20257;-48
2022/09/08 09:25:59;;;;;;;1.30;0.80;;;;;;;17.58;89.84;98140.13;4188164;28;20295;-48
2022/09/08 09:28:20;;;;;;;1.10;0.70;;;;;;;17.84;90.62;98139.31;4184835;28;20296;-47
2022/09/08 09:30:43;;;;;;;2.80;0.88;;;;;;;17.88;88.61;98142.31;4156277;28;20236;-48
2022/09/08 09:33:15;;;;;;;2.47;0.90;;;;;;;17.83;87.92;98139.63;4154106;28;20224;-47
2022/09/08 09:35:39;;;;;;;1.20;0.90;;;;;;;17.57;87.99;98138.44;4151777;28;20287;-50
2022/09/08 09:38:16;;;;;;;1.27;0.52;;;;;;;17.40;87.95;98143.75;4132374;28;20202;-48
2022/09/08 09:40:37;;;;;;;0.73;0.52;;;;;;;17.59;88.48;98133.47;4153823;28;20598;-49
2022/09/08 09:42:43;;;;;;;0.88;0.70;;;;;;;17.83;87.91;98136.84;4152811;28;20605;-47
2022/09/08 09:44:59;;;;;;;4.38;0.63;;;;;;;17.91;86.72;98133.41;4161923;28;20224;-47
2022/09/08 09:47:18;;;;;;;1.67;0.50;;;;;;;17.95;87.24;98139.94;4153934;28;20200;-49
2022/09/08 09:50:14;;;;;;;0.65;0.57;;;;;;;18.11;86.29;98138.53;4170009;28;20369;-48
2022/09/08 09:52:34;;;;;;;0.65;0.60;;;;;;;18.36;85.58;98129.72;4124239;28;20254;-48
2022/09/08 09:55:04;;;;;;;1.05;0.70;;;;;;;18.51;84.95;98132.19;4150221;28;20666;-47
2022/09/08 09:57:24;;;;;;;2.08;0.75;;;;;;;18.71;85.22;98131.72;4160222;28;20228;-48
2022/09/08 09:59:40;;;;;;;1.95;0.80;;;;;;;18.68;83.52;98130.41;4184606;28;20208;-47
2022/09/08 10:01:57;;;;;;;0.50;0.50;;;;;;;18.72;83.64;98133.38;4172104;28;20268;-49